createdAt,value
2022-11-19T00:00:46.747Z,17.10
2022-11-19T00:01:47.067Z,18.80
2022-11-19T00:02:47.319Z,23.20
2022-11-19T00:03:52.131Z,21.20
2022-11-19T00:04:48.896Z,20.60
2022-11-19T00:05:48.245Z,18.00
2022-11-19T00:06:48.611Z,18.80
2022-11-19T00:07:48.819Z,17.30
2022-11-19T00:08:49.163Z,16.60
2022-11-19T00:09:49.313Z,18.20
2022-11-19T00:10:49.604Z,19.10
2022-11-19T00:11:49.873Z,18.30
2022-11-19T00:12:50.235Z,18.90
2022-11-19T00:13:50.522Z,17.10
2022-11-19T00:14:50.872Z,21.00
2022-11-19T00:15:51.216Z,19.30
2022-11-19T00:16:51.576Z,19.60
2022-11-19T00:17:51.771Z,18.50
2022-11-19T00:18:52.146Z,17.00
2022-11-19T00:19:52.382Z,18.40
2022-11-19T00:20:52.755Z,18.60
2022-11-19T00:21:53.081Z,19.50
2022-11-19T00:22:53.377Z,16.30
2022-11-19T00:23:53.688Z,21.90
2022-11-19T00:24:54.002Z,20.10
2022-11-19T00:25:54.216Z,17.90
2022-11-19T00:26:54.631Z,16.40
2022-11-19T00:27:54.815Z,20.40
2022-11-19T00:28:55.056Z,16.10
2022-11-19T00:29:55.367Z,18.60
2022-11-19T00:30:55.646Z,20.40
2022-11-19T00:31:56.396Z,16.90
2022-11-19T00:32:56.220Z,18.90
2022-11-19T00:33:56.566Z,17.60
2022-11-19T00:34:56.739Z,18.50
2022-11-19T00:35:57.041Z,14.90
2022-11-19T00:36:57.391Z,15.80
2022-11-19T00:37:57.690Z,17.00
2022-11-19T00:38:57.898Z,18.80
2022-11-19T00:39:58.165Z,15.30
2022-11-19T00:40:58.548Z,15.80
2022-11-19T00:41:58.724Z,19.30
2022-11-19T00:42:59.099Z,16.90
2022-11-19T00:43:59.309Z,18.00
2022-11-19T00:44:59.571Z,16.00
2022-11-19T00:45:59.858Z,16.20
2022-11-19T00:47:00.201Z,17.20
2022-11-19T00:48:00.432Z,14.90
2022-11-19T00:49:00.719Z,15.90
2022-11-19T00:50:01.029Z,16.10
2022-11-19T00:51:01.291Z,18.60
2022-11-19T00:52:01.596Z,16.70
2022-11-19T00:53:01.916Z,14.00
2022-11-19T00:54:02.225Z,15.80
2022-11-19T00:55:02.550Z,18.00
2022-11-19T00:56:02.853Z,16.10
2022-11-19T00:57:03.175Z,18.70
2022-11-19T00:58:03.400Z,16.00
2022-11-19T00:59:03.769Z,19.30
2022-11-19T01:00:04.008Z,14.80
2022-11-19T01:01:04.396Z,15.30
2022-11-19T01:02:04.698Z,13.20
2022-11-19T01:03:04.887Z,15.30
2022-11-19T01:04:05.170Z,14.20
2022-11-19T01:05:05.465Z,15.10
2022-11-19T01:06:05.748Z,14.90
2022-11-19T01:07:06.137Z,13.80
2022-11-19T01:08:06.333Z,15.40
2022-11-19T01:09:06.664Z,15.30
2022-11-19T01:10:06.921Z,16.60
2022-11-19T01:11:07.153Z,17.10
2022-11-19T01:12:07.444Z,15.30
2022-11-19T01:13:07.774Z,18.00
2022-11-19T01:14:08.014Z,16.90
2022-11-19T01:15:08.325Z,14.80
2022-11-19T01:16:08.609Z,15.60
2022-11-19T01:17:09.055Z,16.40
2022-11-19T01:18:09.238Z,17.50
2022-11-19T01:19:09.967Z,14.50
2022-11-19T01:20:09.889Z,16.40
2022-11-19T01:21:10.134Z,13.00
2022-11-19T01:22:10.396Z,13.70
2022-11-19T01:23:10.715Z,12.30
2022-11-19T01:24:10.994Z,15.60
2022-11-19T01:25:11.346Z,14.20
2022-11-19T01:26:11.821Z,16.20
2022-11-19T01:27:11.851Z,12.80
2022-11-19T01:28:12.083Z,12.00
2022-11-19T01:29:12.414Z,13.20
2022-11-19T01:30:12.750Z,12.20
2022-11-19T01:31:13.059Z,14.00
2022-11-19T01:32:13.359Z,16.50
2022-11-19T01:33:13.668Z,15.70
2022-11-19T01:34:14.051Z,13.50
2022-11-19T01:35:14.260Z,13.00
2022-11-19T01:36:14.635Z,14.50
2022-11-19T01:37:14.815Z,12.50
2022-11-19T01:38:15.158Z,15.00
2022-11-19T01:39:15.473Z,12.80
2022-11-19T01:40:15.772Z,15.50
2022-11-19T01:41:16.103Z,14.00
2022-11-19T01:42:16.425Z,14.20
2022-11-19T01:43:16.724Z,14.40
2022-11-19T01:44:17.060Z,14.20
2022-11-19T01:45:17.365Z,12.30
2022-11-19T01:46:17.733Z,15.30
2022-11-19T01:47:18.032Z,12.60
2022-11-19T01:48:18.296Z,14.50
2022-11-19T01:49:18.991Z,13.90
2022-11-19T01:50:18.939Z,15.80
2022-11-19T01:51:19.255Z,15.40
2022-11-19T01:52:19.555Z,13.70
2022-11-19T01:53:19.785Z,15.60
2022-11-19T01:54:20.104Z,14.30
2022-11-19T01:55:20.389Z,14.90
2022-11-19T01:56:20.621Z,15.80
2022-11-19T01:57:20.943Z,15.40
2022-11-19T01:58:21.219Z,14.30
2022-11-19T01:59:21.922Z,18.70
2022-11-19T02:00:21.866Z,15.90
2022-11-19T02:01:22.206Z,16.40
2022-11-19T02:02:22.409Z,16.50
2022-11-19T02:03:22.747Z,16.60
2022-11-19T02:04:23.029Z,18.80
2022-11-19T02:05:23.331Z,20.30
2022-11-19T02:06:23.637Z,18.50
2022-11-19T02:07:24.046Z,18.00
2022-11-19T02:08:24.213Z,21.10
2022-11-19T02:09:24.544Z,16.60
2022-11-19T02:10:24.826Z,22.90
2022-11-19T02:11:25.126Z,17.00
2022-11-19T02:12:25.478Z,19.20
2022-11-19T02:13:25.744Z,20.90
2022-11-19T02:14:26.037Z,18.10
2022-11-19T02:15:26.293Z,18.20
2022-11-19T02:16:26.632Z,15.90
2022-11-19T02:17:27.022Z,18.50
2022-11-19T02:18:27.239Z,18.30
2022-11-19T02:19:27.523Z,17.40
2022-11-19T02:20:27.836Z,17.00
2022-11-19T02:21:28.160Z,19.50
2022-11-19T02:22:28.480Z,20.70
2022-11-19T02:23:28.766Z,20.60
2022-11-19T02:24:29.063Z,21.50
2022-11-19T02:25:29.277Z,20.60
2022-11-19T02:26:29.635Z,18.30
2022-11-19T02:27:29.906Z,22.60
2022-11-19T02:28:30.259Z,19.20
2022-11-19T02:29:30.535Z,16.40
2022-11-19T02:30:30.879Z,19.60
2022-11-19T02:31:31.231Z,16.40
2022-11-19T02:32:31.462Z,17.90
2022-11-19T02:33:31.710Z,19.60
2022-11-19T02:34:31.994Z,17.80
2022-11-19T02:35:32.157Z,20.40
2022-11-19T02:36:32.462Z,18.90
2022-11-19T02:37:32.773Z,15.10
2022-11-19T02:38:33.039Z,18.20
2022-11-19T02:39:33.387Z,17.30
2022-11-19T02:40:33.706Z,15.20
2022-11-19T02:41:34.007Z,17.80
2022-11-19T02:42:34.319Z,17.30
2022-11-19T02:43:34.641Z,17.30
2022-11-19T02:44:34.957Z,20.10
2022-11-19T02:45:35.276Z,17.90
2022-11-19T02:46:35.585Z,19.00
2022-11-19T02:47:35.903Z,17.20
2022-11-19T02:48:36.232Z,15.30
2022-11-19T02:49:36.519Z,18.70
2022-11-19T02:50:36.856Z,17.60
2022-11-19T02:51:37.085Z,19.30
2022-11-19T02:52:37.371Z,16.50
2022-11-19T02:53:37.698Z,18.00
2022-11-19T02:54:37.910Z,17.00
2022-11-19T02:55:38.259Z,18.90
2022-11-19T02:56:38.453Z,20.10
2022-11-19T02:57:38.809Z,20.40
2022-11-19T02:58:39.065Z,17.70
2022-11-19T02:59:39.454Z,19.00
2022-11-19T03:00:39.664Z,18.80
2022-11-19T03:01:40.075Z,19.90
2022-11-19T03:02:40.219Z,17.20
2022-11-19T03:03:40.550Z,17.40
2022-11-19T03:04:40.916Z,16.80
2022-11-19T03:05:41.106Z,17.10
2022-11-19T03:06:41.432Z,19.20
2022-11-19T03:07:41.701Z,19.00
2022-11-19T03:08:41.977Z,18.90
2022-11-19T03:09:42.349Z,17.60
2022-11-19T03:10:42.740Z,19.40
2022-11-19T03:11:42.999Z,17.20
2022-11-19T03:12:43.146Z,16.90
2022-11-19T03:13:43.512Z,18.90
2022-11-19T03:14:43.852Z,16.80
2022-11-19T03:15:44.115Z,17.10
2022-11-19T03:16:44.348Z,15.60
2022-11-19T03:17:44.557Z,18.10
2022-11-19T03:18:44.925Z,15.50
2022-11-19T03:19:45.214Z,14.20
2022-11-19T03:20:45.570Z,14.80
2022-11-19T03:21:45.884Z,15.10
2022-11-19T03:22:46.178Z,15.70
2022-11-19T03:23:46.522Z,14.70
2022-11-19T03:24:46.681Z,15.20
2022-11-19T03:25:47.029Z,14.30
2022-11-19T03:26:47.339Z,14.20
2022-11-19T03:27:47.643Z,12.90
2022-11-19T03:28:47.873Z,13.20
2022-11-19T03:29:48.220Z,11.40
2022-11-19T03:30:48.501Z,12.10
2022-11-19T03:31:48.856Z,15.50
2022-11-19T03:32:49.196Z,12.70
2022-11-19T03:33:49.447Z,13.00
2022-11-19T03:34:49.724Z,11.40
2022-11-19T03:35:50.062Z,12.90
2022-11-19T03:36:50.333Z,12.10
2022-11-19T03:37:50.616Z,14.10
2022-11-19T03:38:50.949Z,12.00
2022-11-19T03:39:51.276Z,10.40
2022-11-19T03:40:51.548Z,14.20
2022-11-19T03:41:51.853Z,12.60
2022-11-19T03:42:52.153Z,15.00
2022-11-19T03:43:52.452Z,15.00
2022-11-19T03:44:52.739Z,14.30
2022-11-19T03:45:53.037Z,14.30
2022-11-19T03:46:53.303Z,13.40
2022-11-19T03:47:53.645Z,12.30
2022-11-19T03:48:53.955Z,12.70
2022-11-19T03:49:55.232Z,13.00
2022-11-19T03:50:54.546Z,13.10
2022-11-19T03:51:54.873Z,14.00
2022-11-19T03:52:58.747Z,15.20
2022-11-19T03:53:56.486Z,13.30
2022-11-19T03:54:55.847Z,14.70
2022-11-19T03:55:56.014Z,10.60
2022-11-19T03:56:56.334Z,12.80
2022-11-19T03:57:56.680Z,13.30
2022-11-19T03:58:56.994Z,11.30
2022-11-19T03:59:57.278Z,11.80
2022-11-19T04:00:57.572Z,14.00
2022-11-19T04:01:57.958Z,12.70
2022-11-19T04:02:58.083Z,15.40
2022-11-19T04:03:58.443Z,14.10
2022-11-19T04:04:58.740Z,13.30
2022-11-19T04:05:59.061Z,13.20
2022-11-19T04:06:59.427Z,15.20
2022-11-19T04:07:59.639Z,14.30
2022-11-19T04:08:59.904Z,14.30
2022-11-19T04:10:00.275Z,12.20
2022-11-19T04:11:41.253Z,15.70
2022-11-19T04:12:41.539Z,15.50
2022-11-19T04:13:41.919Z,13.00
2022-11-19T04:14:43.127Z,14.70
2022-11-19T04:15:42.456Z,12.40
2022-11-19T04:16:42.796Z,12.50
2022-11-19T04:17:43.047Z,11.40
2022-11-19T04:18:43.356Z,11.30
2022-11-19T04:19:43.681Z,10.80
2022-11-19T04:20:43.952Z,11.20
2022-11-19T04:21:44.326Z,12.60
2022-11-19T04:22:44.599Z,12.80
2022-11-19T04:23:44.913Z,14.80
2022-11-19T04:24:45.214Z,13.80
2022-11-19T04:25:45.546Z,13.60
2022-11-19T04:26:45.762Z,12.00
2022-11-19T04:27:46.116Z,11.60
2022-11-19T04:28:46.393Z,14.70
2022-11-19T04:29:46.734Z,12.50
2022-11-19T04:30:47.017Z,12.70
2022-11-19T04:31:47.373Z,14.00
2022-11-19T04:32:47.478Z,13.30
2022-11-19T04:33:47.831Z,14.80
2022-11-19T04:34:48.157Z,12.30
2022-11-19T04:35:48.490Z,14.20
2022-11-19T04:36:48.795Z,13.60
2022-11-19T04:37:49.096Z,12.50
2022-11-19T04:38:49.631Z,16.00
2022-11-19T04:39:49.728Z,13.00
2022-11-19T04:40:49.980Z,14.00
2022-11-19T04:41:50.317Z,14.40
2022-11-19T04:42:50.661Z,12.70
2022-11-19T04:43:50.966Z,18.90
2022-11-19T04:44:51.693Z,16.10
2022-11-19T04:45:51.553Z,12.30
2022-11-19T04:46:51.830Z,14.90
2022-11-19T04:47:52.165Z,14.30
2022-11-19T04:48:52.467Z,15.80
2022-11-19T04:49:52.803Z,17.10
2022-11-19T04:50:53.093Z,14.30
2022-11-19T04:51:53.451Z,15.20
2022-11-19T04:52:53.718Z,17.00
2022-11-19T04:53:54.080Z,14.80
2022-11-19T04:54:54.373Z,15.90
2022-11-19T04:55:54.688Z,17.60
2022-11-19T04:56:55.019Z,14.30
2022-11-19T04:57:55.323Z,18.10
2022-11-19T04:58:55.531Z,17.30
2022-11-19T04:59:55.938Z,16.60
2022-11-19T05:00:56.189Z,13.20
2022-11-19T05:01:56.591Z,12.90
2022-11-19T05:02:56.714Z,14.20
2022-11-19T05:03:57.085Z,14.20
2022-11-19T05:04:57.345Z,15.40
2022-11-19T05:05:57.663Z,12.40
2022-11-19T05:06:58.043Z,13.30
2022-11-19T05:07:58.388Z,15.40
2022-11-19T05:08:58.650Z,12.70
2022-11-19T05:09:58.929Z,14.30
2022-11-19T05:10:59.683Z,12.60
2022-11-19T05:11:59.528Z,11.30
2022-11-19T05:12:59.798Z,13.60
2022-11-19T05:14:00.135Z,13.90
2022-11-19T05:15:00.434Z,11.70
2022-11-19T05:16:00.743Z,14.10
2022-11-19T05:17:00.981Z,12.80
2022-11-19T05:18:01.288Z,14.00
2022-11-19T05:19:01.524Z,14.00
2022-11-19T05:20:01.900Z,14.60
2022-11-19T05:21:02.185Z,18.30
2022-11-19T05:22:02.360Z,14.20
2022-11-19T05:23:02.642Z,17.30
2022-11-19T05:24:03.047Z,15.40
2022-11-19T05:25:03.224Z,17.70
2022-11-19T05:26:03.515Z,19.10
2022-11-19T05:27:03.796Z,16.10
2022-11-19T05:28:04.114Z,20.30
2022-11-19T05:29:04.396Z,19.30
2022-11-19T05:30:04.740Z,19.90
2022-11-19T05:31:05.043Z,20.70
2022-11-19T05:32:05.414Z,18.90
2022-11-19T05:33:05.641Z,21.10
2022-11-19T05:34:05.909Z,18.70
2022-11-19T05:35:06.166Z,20.70
2022-11-19T05:36:06.389Z,20.60
2022-11-19T05:37:06.718Z,23.90
2022-11-19T05:38:07.059Z,20.50
2022-11-19T05:39:07.484Z,22.40
2022-11-19T05:40:07.667Z,21.60
2022-11-19T05:41:08.043Z,22.90
2022-11-19T05:42:09.073Z,21.90
2022-11-19T05:43:08.519Z,23.60
2022-11-19T05:44:08.841Z,25.30
2022-11-19T05:45:09.169Z,26.50
2022-11-19T05:46:09.509Z,26.10
2022-11-19T05:47:09.832Z,24.50
2022-11-19T05:48:10.195Z,25.50
2022-11-19T05:49:10.411Z,26.70
2022-11-19T05:50:10.723Z,24.90
2022-11-19T05:51:11.013Z,25.80
2022-11-19T05:52:11.352Z,25.10
2022-11-19T05:53:11.554Z,23.90
2022-11-19T05:54:11.909Z,27.30
2022-11-19T05:55:12.060Z,23.10
2022-11-19T05:56:12.417Z,26.50
2022-11-19T05:57:12.634Z,23.10
2022-11-19T05:58:12.996Z,22.50
2022-11-19T05:59:13.272Z,23.60
2022-11-19T06:00:13.615Z,22.80
2022-11-19T06:01:13.939Z,23.00
2022-11-19T06:02:14.291Z,23.10
2022-11-19T06:03:14.580Z,25.70
2022-11-19T06:04:14.837Z,24.30
2022-11-19T06:05:15.164Z,25.50
2022-11-19T06:06:15.496Z,25.60
2022-11-19T06:07:15.839Z,22.10
2022-11-19T06:08:16.135Z,21.60
2022-11-19T06:09:16.508Z,24.90
2022-11-19T06:10:16.689Z,23.00
2022-11-19T06:11:17.057Z,20.10
2022-11-19T06:12:17.377Z,25.10
2022-11-19T06:13:17.652Z,20.60
2022-11-19T06:14:17.975Z,22.90
2022-11-19T06:15:18.212Z,24.40
2022-11-19T06:16:18.417Z,23.00
2022-11-19T06:17:18.784Z,21.00
2022-11-19T06:18:19.117Z,20.60
2022-11-19T06:19:19.943Z,21.00
2022-11-19T06:20:19.651Z,22.20
2022-11-19T06:21:19.999Z,23.90
2022-11-19T06:22:20.223Z,21.80
2022-11-19T06:23:20.498Z,22.60
2022-11-19T06:24:20.779Z,26.10
2022-11-19T06:25:21.172Z,21.40
2022-11-19T06:26:21.391Z,22.70
2022-11-19T06:27:21.619Z,21.60
2022-11-19T06:28:21.853Z,23.80
2022-11-19T06:29:22.461Z,23.70
2022-11-19T06:30:22.410Z,25.20
2022-11-19T06:31:22.637Z,21.90
2022-11-19T06:32:22.901Z,23.80
2022-11-19T06:33:23.164Z,23.00
2022-11-19T06:34:23.413Z,23.10
2022-11-19T06:35:23.730Z,23.00
2022-11-19T06:36:27.440Z,25.30
2022-11-19T06:37:24.205Z,22.80
2022-11-19T06:38:24.459Z,25.40
2022-11-19T06:39:24.725Z,23.50
2022-11-19T06:40:25.016Z,23.50
2022-11-19T06:41:25.276Z,23.70
2022-11-19T06:42:25.517Z,23.90
2022-11-19T06:43:25.733Z,24.10
2022-11-19T06:44:26.180Z,23.70
2022-11-19T06:45:26.401Z,21.80
2022-11-19T06:46:26.708Z,21.60
2022-11-19T06:47:26.946Z,22.90
2022-11-19T06:48:27.384Z,23.70
2022-11-19T06:49:27.474Z,22.00
2022-11-19T06:50:29.050Z,19.70
2022-11-19T06:51:28.022Z,21.70
2022-11-19T06:52:28.303Z,20.90
2022-11-19T06:53:28.532Z,20.90
2022-11-19T06:54:28.748Z,22.10
2022-11-19T06:55:29.057Z,20.90
2022-11-19T06:56:29.245Z,21.10
2022-11-19T06:57:29.488Z,20.90
2022-11-19T06:58:29.837Z,20.60
2022-11-19T06:59:30.113Z,20.00
2022-11-19T07:00:30.465Z,20.40
2022-11-19T07:01:30.695Z,18.90
2022-11-19T07:02:31.098Z,18.70
2022-11-19T07:03:31.265Z,20.60
2022-11-19T07:04:31.510Z,18.10
2022-11-19T07:05:31.796Z,17.70
2022-11-19T07:06:32.121Z,19.50
2022-11-19T07:07:32.461Z,19.60
2022-11-19T07:08:32.652Z,19.50
2022-11-19T07:09:32.887Z,19.00
2022-11-19T07:10:33.175Z,18.40
2022-11-19T07:11:33.377Z,20.20
2022-11-19T07:12:33.766Z,20.50
2022-11-19T07:13:34.013Z,20.80
2022-11-19T07:14:34.307Z,19.10
2022-11-19T07:15:34.581Z,19.50
2022-11-19T07:16:34.834Z,18.00
2022-11-19T07:17:35.094Z,20.10
2022-11-19T07:18:35.338Z,20.30
2022-11-19T07:19:35.646Z,22.60
2022-11-19T07:20:35.843Z,20.90
2022-11-19T07:21:36.124Z,20.80
2022-11-19T07:22:36.358Z,22.30
2022-11-19T07:23:36.633Z,21.20
2022-11-19T07:24:36.916Z,22.60
2022-11-19T07:25:37.157Z,20.60
2022-11-19T07:26:37.491Z,20.90
2022-11-19T07:27:37.681Z,19.00
2022-11-19T07:28:37.979Z,20.70
2022-11-19T07:29:38.167Z,20.80
2022-11-19T07:30:38.461Z,22.10
2022-11-19T07:31:38.722Z,20.80
2022-11-19T07:32:39.042Z,25.50
2022-11-19T07:33:39.267Z,27.00
2022-11-19T07:34:39.513Z,23.40
2022-11-19T07:35:39.787Z,24.10
2022-11-19T07:36:40.041Z,22.90
2022-11-19T07:37:40.317Z,29.80
2022-11-19T07:38:40.599Z,21.00
2022-11-19T07:39:40.880Z,22.00
2022-11-19T07:40:41.156Z,18.40
2022-11-19T07:41:41.374Z,16.40
2022-11-19T07:42:41.691Z,15.20
2022-11-19T07:43:41.880Z,15.20
2022-11-19T07:44:42.152Z,16.50
2022-11-19T07:45:42.428Z,17.60
2022-11-19T07:46:42.720Z,16.20
2022-11-19T07:47:43.878Z,17.90
2022-11-19T07:48:43.298Z,15.60
2022-11-19T07:49:43.549Z,19.40
2022-11-19T07:50:43.852Z,15.80
2022-11-19T07:51:44.141Z,15.80
2022-11-19T07:52:44.349Z,16.60
2022-11-19T07:53:44.629Z,15.70
2022-11-19T07:54:44.910Z,16.70
2022-11-19T07:55:45.084Z,16.90
2022-11-19T07:56:45.428Z,22.10
2022-11-19T07:57:45.723Z,20.70
2022-11-19T07:58:45.975Z,18.60
2022-11-19T07:59:46.303Z,21.80
2022-11-19T08:00:46.548Z,19.30
2022-11-19T08:01:46.953Z,18.40
2022-11-19T08:02:47.054Z,18.80
2022-11-19T08:03:51.888Z,22.00
2022-11-19T08:04:48.604Z,16.90
2022-11-19T08:05:47.907Z,18.40
2022-11-19T08:06:48.169Z,17.50
2022-11-19T08:07:48.356Z,15.30
2022-11-19T08:08:48.618Z,15.70
2022-11-19T08:09:48.839Z,15.30
2022-11-19T08:10:49.113Z,14.30
2022-11-19T08:11:49.377Z,17.60
2022-11-19T08:12:49.634Z,13.70
2022-11-19T08:13:49.868Z,17.30
2022-11-19T08:14:50.143Z,20.60
2022-11-19T08:15:50.374Z,16.40
2022-11-19T08:16:50.756Z,19.50
2022-11-19T08:17:51.066Z,19.60
2022-11-19T08:18:51.336Z,16.80
2022-11-19T08:19:51.593Z,18.50
2022-11-19T08:20:51.872Z,21.00
2022-11-19T08:21:52.146Z,16.90
2022-11-19T08:22:52.473Z,18.10
2022-11-19T08:23:52.733Z,17.20
2022-11-19T08:24:52.942Z,19.10
2022-11-19T08:25:53.216Z,16.30
2022-11-19T08:26:53.510Z,15.60
2022-11-19T08:27:53.824Z,17.60
2022-11-19T08:28:54.074Z,13.40
2022-11-19T08:29:54.264Z,16.50
2022-11-19T08:30:54.478Z,15.20
2022-11-19T08:31:55.675Z,14.90
2022-11-19T08:32:55.233Z,13.60
2022-11-19T08:33:55.496Z,14.50
2022-11-19T08:34:55.716Z,14.30
2022-11-19T08:35:55.943Z,12.90
2022-11-19T08:36:56.166Z,14.70
2022-11-19T08:37:56.515Z,14.40
2022-11-19T08:38:56.874Z,14.00
2022-11-19T08:39:57.118Z,14.20
2022-11-19T08:40:57.358Z,13.40
2022-11-19T08:41:57.568Z,14.40
2022-11-19T08:42:57.945Z,12.10
2022-11-19T08:43:58.170Z,11.80
2022-11-19T08:44:58.689Z,10.90
2022-11-19T08:45:58.829Z,11.70
2022-11-19T08:46:59.051Z,11.90
2022-11-19T08:47:59.295Z,10.40
2022-11-19T08:48:59.649Z,12.20
2022-11-19T08:49:59.957Z,14.00
2022-11-19T08:51:00.146Z,12.60
2022-11-19T08:52:00.513Z,12.20
2022-11-19T08:53:00.822Z,13.70
2022-11-19T08:54:00.996Z,12.80
2022-11-19T08:55:01.311Z,14.00
2022-11-19T08:56:01.525Z,11.00
2022-11-19T08:57:01.785Z,11.50
2022-11-19T08:58:02.029Z,11.90
2022-11-19T08:59:03.544Z,10.10
2022-11-19T09:00:06.136Z,13.50
2022-11-19T09:01:02.907Z,11.20
2022-11-19T09:02:03.099Z,10.60
2022-11-19T09:03:03.424Z,10.50
2022-11-19T09:04:03.617Z,13.00
2022-11-19T09:05:03.849Z,12.20
2022-11-19T09:06:04.075Z,12.50
2022-11-19T09:07:04.454Z,12.00
2022-11-19T09:08:04.703Z,14.10
2022-11-19T09:09:05.007Z,15.60
2022-11-19T09:10:05.215Z,16.50
2022-11-19T09:11:05.478Z,15.20
2022-11-19T09:12:05.734Z,13.60
2022-11-19T09:13:05.962Z,14.30
2022-11-19T09:14:06.201Z,12.60
2022-11-19T09:15:06.595Z,14.10
2022-11-19T09:16:06.888Z,13.10
2022-11-19T09:17:07.116Z,13.40
2022-11-19T09:18:07.486Z,12.70
2022-11-19T09:19:08.787Z,12.20
2022-11-19T09:20:08.066Z,13.20
2022-11-19T09:21:08.381Z,15.40
2022-11-19T09:22:08.579Z,14.30
2022-11-19T09:23:08.867Z,14.90
2022-11-19T09:24:09.171Z,14.70
2022-11-19T09:25:09.433Z,15.20
2022-11-19T09:26:09.742Z,14.50
2022-11-19T09:27:10.044Z,14.90
2022-11-19T09:28:10.279Z,14.60
2022-11-19T09:29:10.592Z,15.70
2022-11-19T09:30:10.830Z,13.00
2022-11-19T09:31:11.070Z,17.30
2022-11-19T09:32:11.340Z,15.00
2022-11-19T09:33:11.708Z,14.70
2022-11-19T09:34:11.913Z,14.90
2022-11-19T09:35:12.212Z,16.10
2022-11-19T09:36:12.529Z,16.40
2022-11-19T09:37:13.703Z,15.30
2022-11-19T09:38:12.949Z,15.50
2022-11-19T09:39:13.337Z,14.60
2022-11-19T09:40:13.662Z,15.10
2022-11-19T09:41:13.910Z,14.80
2022-11-19T09:42:14.164Z,16.00
2022-11-19T09:43:15.745Z,15.80
2022-11-19T09:44:14.742Z,18.40
2022-11-19T09:45:15.040Z,21.00
2022-11-19T09:46:15.314Z,16.20
2022-11-19T09:47:15.586Z,15.10
2022-11-19T09:48:15.850Z,15.40
2022-11-19T09:49:16.131Z,16.20
2022-11-19T09:50:16.375Z,16.50
2022-11-19T09:51:16.680Z,17.90
2022-11-19T09:52:17.877Z,18.60
2022-11-19T09:53:17.168Z,21.60
2022-11-19T09:54:17.828Z,21.30
2022-11-19T09:55:17.779Z,24.30
2022-11-19T09:56:17.990Z,22.20
2022-11-19T09:57:18.323Z,23.30
2022-11-19T09:58:18.726Z,22.70
2022-11-19T09:59:18.829Z,19.60
2022-11-19T10:00:19.151Z,19.00
2022-11-19T10:01:19.464Z,18.70
2022-11-19T10:02:19.713Z,17.40
2022-11-19T10:03:20.049Z,16.90
2022-11-19T10:04:20.479Z,19.10
2022-11-19T10:05:20.519Z,18.90
2022-11-19T10:06:20.770Z,19.10
2022-11-19T10:07:21.162Z,17.40
2022-11-19T10:08:21.256Z,17.60
2022-11-19T10:09:21.595Z,17.40
2022-11-19T10:10:21.848Z,16.80
2022-11-19T10:11:22.378Z,17.10
2022-11-19T10:12:22.442Z,16.80
2022-11-19T10:13:22.812Z,17.00
2022-11-19T10:14:23.053Z,18.40
2022-11-19T10:15:23.830Z,16.80
2022-11-19T10:16:23.626Z,15.50
2022-11-19T10:17:23.884Z,15.80
2022-11-19T10:18:24.127Z,14.20
2022-11-19T10:19:25.407Z,14.70
2022-11-19T10:20:24.747Z,15.60
2022-11-19T10:21:25.019Z,17.70
2022-11-19T10:22:25.220Z,15.30
2022-11-19T10:23:25.516Z,15.20
2022-11-19T10:24:25.785Z,16.30
2022-11-19T10:25:26.160Z,16.90
2022-11-19T10:26:26.336Z,14.90
2022-11-19T10:27:26.575Z,17.80
2022-11-19T10:28:26.891Z,15.40
2022-11-19T10:29:34.472Z,14.90
2022-11-19T10:30:27.364Z,17.90
2022-11-19T10:31:27.879Z,17.10
2022-11-19T10:32:27.970Z,16.70
2022-11-19T10:33:28.263Z,17.30
2022-11-19T10:34:28.502Z,15.80
2022-11-19T10:35:28.771Z,14.40
2022-11-19T10:36:29.146Z,15.80
2022-11-19T10:37:29.401Z,15.70
2022-11-19T10:38:29.746Z,16.10
2022-11-19T10:39:30.001Z,16.40
2022-11-19T10:40:30.251Z,17.30
2022-11-19T10:41:30.524Z,17.40
2022-11-19T10:42:30.816Z,17.20
2022-11-19T10:43:31.079Z,18.80
2022-11-19T10:44:31.326Z,18.60
2022-11-19T10:45:31.625Z,18.80
2022-11-19T10:46:31.897Z,17.60
2022-11-19T10:47:32.202Z,19.30
2022-11-19T10:48:32.503Z,16.50
2022-11-19T10:49:32.769Z,17.60
2022-11-19T10:50:33.087Z,16.30
2022-11-19T10:51:33.398Z,18.10
2022-11-19T10:52:33.648Z,18.60
2022-11-19T10:53:33.949Z,17.40
2022-11-19T10:54:34.146Z,23.60
2022-11-19T10:55:34.551Z,21.50
2022-11-19T10:56:34.844Z,22.90
2022-11-19T10:57:35.198Z,17.50
2022-11-19T10:58:35.424Z,17.70
2022-11-19T10:59:35.699Z,18.50
2022-11-19T11:00:36.053Z,17.70
2022-11-19T11:01:36.267Z,17.90
2022-11-19T11:02:36.540Z,17.90
2022-11-19T11:03:36.820Z,19.20
2022-11-19T11:04:37.098Z,20.60
2022-11-19T11:05:37.329Z,16.90
2022-11-19T11:06:37.572Z,18.00
2022-11-19T11:07:38.871Z,19.00
2022-11-19T11:08:38.150Z,16.40
2022-11-19T11:09:38.593Z,16.50
2022-11-19T11:10:39.214Z,19.70
2022-11-19T11:11:39.984Z,19.50
2022-11-19T11:12:39.195Z,16.90
2022-11-19T11:13:39.464Z,16.30
2022-11-19T11:14:39.761Z,15.90
2022-11-19T11:15:40.109Z,16.00
2022-11-19T11:16:40.430Z,12.90
2022-11-19T11:17:40.681Z,15.40
2022-11-19T11:18:41.157Z,15.20
2022-11-19T11:19:41.263Z,14.40
2022-11-19T11:20:41.453Z,14.50
2022-11-19T11:21:41.855Z,15.40
2022-11-19T11:22:41.988Z,14.00
2022-11-19T11:23:42.284Z,15.50
2022-11-19T11:24:42.660Z,16.00
2022-11-19T11:25:42.796Z,15.50
2022-11-19T11:26:43.077Z,15.30
2022-11-19T11:27:43.367Z,18.30
2022-11-19T11:28:43.687Z,16.70
2022-11-19T11:29:43.949Z,15.70
2022-11-19T11:30:44.189Z,16.80
2022-11-19T11:31:44.513Z,16.50
2022-11-19T11:32:44.759Z,16.40
2022-11-19T11:33:45.074Z,17.20
2022-11-19T11:34:45.342Z,18.20
2022-11-19T11:35:45.718Z,17.20
2022-11-19T11:36:45.955Z,14.70
2022-11-19T11:37:46.222Z,18.20
2022-11-19T11:38:46.497Z,15.40
2022-11-19T11:39:46.932Z,16.20
2022-11-19T11:40:47.049Z,15.60
2022-11-19T11:42:05.512Z,15.50
2022-11-19T11:42:48.594Z,16.60
2022-11-19T11:43:48.017Z,16.20
2022-11-19T11:44:48.193Z,16.60
2022-11-19T11:45:48.451Z,15.80
2022-11-19T11:46:48.822Z,20.40
2022-11-19T11:47:49.032Z,16.90
2022-11-19T11:48:49.309Z,15.90
2022-11-19T11:49:49.598Z,19.10
2022-11-19T11:50:49.906Z,17.30
2022-11-19T11:51:50.213Z,16.80
2022-11-19T11:52:50.494Z,16.70
2022-11-19T11:53:50.759Z,17.60
2022-11-19T11:54:51.022Z,18.90
2022-11-19T11:55:51.286Z,17.60
2022-11-19T11:56:51.589Z,15.10
2022-11-19T11:57:52.298Z,16.10
2022-11-19T11:58:52.111Z,15.10
2022-11-19T11:59:52.387Z,13.90
2022-11-19T12:00:52.707Z,14.90
2022-11-19T12:01:53.029Z,12.60
2022-11-19T12:02:53.133Z,13.90
2022-11-19T12:03:55.181Z,12.70
2022-11-19T12:04:53.638Z,13.10
2022-11-19T12:05:53.930Z,12.60
2022-11-19T12:06:54.176Z,13.70
2022-11-19T12:07:54.573Z,14.20
2022-11-19T12:08:54.674Z,12.60
2022-11-19T12:09:54.939Z,13.90
2022-11-19T12:10:56.091Z,13.30
2022-11-19T12:11:55.530Z,12.20
2022-11-19T12:12:55.717Z,11.90
2022-11-19T12:13:55.958Z,11.50
2022-11-19T12:14:56.278Z,13.60
2022-11-19T12:15:56.480Z,12.30
2022-11-19T12:16:56.786Z,12.50
2022-11-19T12:17:57.015Z,13.90
2022-11-19T12:18:57.301Z,13.00
2022-11-19T12:19:57.553Z,12.10
2022-11-19T12:20:57.779Z,12.10
2022-11-19T12:21:58.080Z,11.80
2022-11-19T12:22:58.275Z,13.40
2022-11-19T12:23:58.550Z,13.40
2022-11-19T12:24:58.919Z,12.40
2022-11-19T12:25:59.118Z,12.60
2022-11-19T12:26:59.378Z,12.70
2022-11-19T12:27:59.596Z,13.10
2022-11-19T12:28:59.974Z,11.90
2022-11-19T12:30:00.269Z,12.20
2022-11-19T12:31:00.482Z,12.40
2022-11-19T12:32:00.742Z,12.70
2022-11-19T12:33:01.011Z,11.90
2022-11-19T12:34:01.259Z,12.40
2022-11-19T12:35:01.531Z,12.20
2022-11-19T12:36:01.880Z,14.50
2022-11-19T12:37:01.972Z,13.40
2022-11-19T12:38:02.248Z,13.40
2022-11-19T12:39:02.561Z,13.50
2022-11-19T12:40:02.878Z,15.00
2022-11-19T12:41:03.073Z,12.40
2022-11-19T12:42:03.313Z,14.30
2022-11-19T12:43:03.584Z,14.20
2022-11-19T12:44:03.791Z,12.10
2022-11-19T12:45:04.174Z,14.10
2022-11-19T12:46:04.410Z,15.10
2022-11-19T12:47:04.667Z,12.80
2022-11-19T12:48:05.162Z,14.30
2022-11-19T12:49:05.272Z,14.90
2022-11-19T12:50:05.641Z,14.70
2022-11-19T12:51:05.853Z,14.10
2022-11-19T12:52:06.158Z,14.60
2022-11-19T12:53:06.400Z,13.40
2022-11-19T12:54:06.644Z,13.50
2022-11-19T12:55:07.035Z,11.90
2022-11-19T12:56:07.138Z,13.70
2022-11-19T12:57:07.440Z,14.50